Time;durP1;ratioP1;P1;durP2;ratioP2;P2;SDS_P1;SDS_P2;PMS_P1;PMS_P2;Temp;Humidity;BMP_temperature;BMP_pressure;BME280_temperature;BME280_humidity;BME280_pressure;Samples;Min_cycle;Max_cycle;Signal;HPM_P1;HPM_P2
2021/10/18 07:01:18;;;;;;;9.37;4.00;;;9.50;99.90;;;;;;4952589;23;20303;-73
2021/10/18 07:03:45;;;;;;;7.60;3.80;;;9.70;99.90;;;;;;4955075;28;20303;-71
2021/10/18 07:06:11;;;;;;;11.27;4.20;;;9.80;99.90;;;;;;4955520;28;20232;-70
2021/10/18 07:08:38;;;;;;;9.87;4.20;;;9.90;99.90;;;;;;4955341;29;20316;-71
2021/10/18 07:11:05;;;;;;;9.63;4.00;;;10.00;99.90;;;;;;4955676;29;20210;-72
2021/10/18 07:13:32;;;;;;;8.30;3.90;;;10.30;99.90;;;;;;4955616;29;20246;-70
2021/10/18 07:15:59;;;;;;;8.03;3.53;;;10.40;99.90;;;;;;4955447;28;20234;-72
2021/10/18 07:18:28;;;;;;;8.37;3.77;;;10.70;99.90;;;;;;4955704;29;20591;-70
2021/10/18 07:20:54;;;;;;;8.27;3.87;;;10.80;99.90;;;;;;4955769;29;20263;-70
2021/10/18 07:23:21;;;;;;;10.33;4.23;;;11.10;99.90;;;;;;4956007;29;20503;-70
2021/10/18 07:25:48;;;;;;;7.43;3.40;;;11.30;99.90;;;;;;4955692;29;20259;-70
2021/10/18 07:28:16;;;;;;;7.30;3.50;;;11.50;99.90;;;;;;4955251;28;20319;-73
2021/10/18 07:30:45;;;;;;;7.17;3.50;;;11.40;99.90;;;;;;4955472;29;20322;-72
2021/10/18 07:33:11;;;;;;;5.70;2.93;;;11.40;99.90;;;;;;4955528;28;20235;-73
2021/10/18 07:35:40;;;;;;;5.90;3.20;;;11.50;99.90;;;;;;4955487;29;20678;-70
2021/10/18 07:38:09;;;;;;;6.50;3.37;;;11.40;99.90;;;;;;4955485;28;20227;-69
2021/10/18 07:40:36;;;;;;;6.07;3.00;;;11.60;99.90;;;;;;4955419;29;20204;-72
2021/10/18 07:43:03;;;;;;;7.80;3.40;;;11.70;99.90;;;;;;4955379;29;20212;-70
2021/10/18 07:45:30;;;;;;;5.70;3.20;;;11.70;99.90;;;;;;4955372;29;20212;-70
2021/10/18 07:47:57;;;;;;;5.07;2.63;;;11.80;99.90;;;;;;4955346;28;20235;-69
2021/10/18 07:50:24;;;;;;;6.47;2.80;;;11.90;99.90;;;;;;4955283;29;20310;-70
2021/10/18 07:52:52;;;;;;;10.80;2.80;;;11.90;99.90;;;;;;4955245;29;20240;-70
2021/10/18 07:55:19;;;;;;;6.43;2.93;;;12.00;99.90;;;;;;4955178;29;20207;-69
2021/10/18 07:57:49;;;;;;;7.33;3.30;;;12.20;99.90;;;;;;4955622;28;20228;-73
2021/10/18 08:00:18;;;;;;;5.03;2.40;;;12.00;99.90;;;;;;4955342;29;20220;-70
2021/10/18 08:02:45;;;;;;;6.77;2.60;;;12.00;99.90;;;;;;4955084;29;20239;-71
2021/10/18 08:05:16;;;;;;;6.63;2.97;;;12.20;99.90;;;;;;4954882;29;20203;-69
2021/10/18 08:07:45;;;;;;;6.90;2.87;;;12.30;99.90;;;;;;4955132;28;20231;-71
2021/10/18 08:10:15;;;;;;;7.20;2.77;;;12.00;99.90;;;;;;4955016;29;20228;-70
2021/10/18 08:12:42;;;;;;;6.97;3.07;;;12.00;99.90;;;;;;4955059;29;20346;-71
2021/10/18 08:15:09;;;;;;;5.43;2.80;;;12.10;99.90;;;;;;4954992;29;20299;-70
2021/10/18 08:17:36;;;;;;;7.40;2.80;;;12.20;99.90;;;;;;4954598;28;20232;-71
2021/10/18 08:20:03;;;;;;;4.80;2.50;;;12.30;99.90;;;;;;4954882;29;20212;-70
2021/10/18 08:22:30;;;;;;;6.93;3.00;;;12.30;99.90;;;;;;4954594;29;20204;-71
2021/10/18 08:24:57;;;;;;;7.47;2.43;;;12.30;99.90;;;;;;4954653;29;20212;-70
2021/10/18 08:27:25;;;;;;;5.83;2.90;;;12.40;99.90;;;;;;4954537;28;20736;-73
2021/10/18 08:29:52;;;;;;;5.67;2.33;;;12.50;99.90;;;;;;4955006;29;20218;-71
2021/10/18 08:32:18;;;;;;;5.20;3.10;;;12.50;99.90;;;;;;4954675;29;20243;-73
2021/10/18 08:34:45;;;;;;;5.87;2.60;;;12.40;99.90;;;;;;4954755;29;20685;-70
2021/10/18 08:37:13;;;;;;;6.77;2.63;;;12.40;99.90;;;;;;4954532;28;20228;-70
2021/10/18 08:42:27;;;;;;;6.10;2.53;;;12.10;99.90;;;;;;4958623;29;20297;-70
2021/10/18 08:44:54;;;;;;;6.57;2.50;;;12.10;99.90;;;;;;4958508;29;20310;-71
2021/10/18 08:47:26;;;;;;;5.10;2.20;;;12.10;99.90;;;;;;4958037;28;20729;-70
2021/10/18 08:49:54;;;;;;;5.50;2.37;;;12.10;99.90;;;;;;4958184;29;20212;-74
2021/10/18 08:52:21;;;;;;;4.53;2.43;;;12.20;99.90;;;;;;4958393;29;20250;-71
2021/10/18 08:54:48;;;;;;;5.63;3.00;;;12.30;99.90;;;;;;4958517;29;20218;-73
2021/10/18 08:57:14;;;;;;;4.37;2.40;;;12.40;99.90;;;;;;4958208;28;20235;-71
2021/10/18 08:59:43;;;;;;;4.00;2.20;;;12.50;99.90;;;;;;4958253;29;20606;-72
2021/10/18 09:02:10;;;;;;;4.90;2.30;;;12.70;99.90;;;;;;4957766;29;20214;-71
2021/10/18 09:04:39;;;;;;;5.33;2.33;;;12.80;99.90;;;;;;4958098;29;20208;-74
2021/10/18 09:07:14;;;;;;;4.77;2.13;;;12.60;99.90;;;;;;4957649;28;20334;-75
2021/10/18 09:09:49;;;;;;;8.80;2.57;;;12.80;99.90;;;;;;4957926;29;20210;-71
2021/10/18 09:12:26;;;;;;;6.13;2.47;;;13.00;99.90;;;;;;4957929;29;20235;-69
2021/10/18 09:15:16;;;;;;;6.33;2.40;;;13.30;99.90;;;;;;4958215;29;20216;-72
2021/10/18 09:17:43;;;;;;;4.70;2.23;;;13.50;99.90;;;;;;4957880;28;20228;-72
2021/10/18 09:20:24;;;;;;;5.50;2.53;;;13.60;99.90;;;;;;4958014;29;20215;-74
2021/10/18 09:22:52;;;;;;;5.07;2.10;;;13.70;99.90;;;;;;4957650;29;20214;-69
2021/10/18 09:25:36;;;;;;;5.33;2.40;;;13.80;99.90;;;;;;4957949;29;20303;-68
2021/10/18 09:28:11;;;;;;;3.80;2.10;;;13.80;99.90;;;;;;4957916;28;20311;-69
2021/10/18 09:30:41;;;;;;;4.57;2.20;;;13.90;99.90;;;;;;4957451;28;20659;-75
2021/10/18 09:33:16;;;;;;;3.50;2.03;;;14.00;99.90;;;;;;4957624;29;20247;-74
2021/10/18 09:35:43;;;;;;;5.77;2.43;;;14.00;99.90;;;;;;4957410;29;20204;-71
2021/10/18 09:38:11;;;;;;;4.90;2.10;;;14.10;99.90;;;;;;4957780;28;20232;-71
2021/10/18 09:40:40;;;;;;;3.43;1.97;;;14.10;99.90;;;;;;4957361;29;20697;-70
2021/10/18 09:43:12;;;;;;;4.23;2.10;;;14.40;99.90;;;;;;4957360;29;20235;-70
2021/10/18 09:45:56;;;;;;;2.87;2.00;;;14.60;99.90;;;;;;4957583;29;20412;-71
2021/10/18 10:53:50;;;;;;;3.80;1.53;;;16.40;99.90;;;;;;4956191;29;20298;-70
2021/10/18 10:56:23;;;;;;;2.53;1.30;;;16.30;99.90;;;;;;4956002;28;20769;-69
2021/10/18 10:58:53;;;;;;;5.27;2.17;;;16.10;99.90;;;;;;4955864;29;20212;-70
2021/10/18 11:01:47;;;;;;;3.57;2.13;;;16.20;99.90;;;;;;4955953;29;20217;-70
2021/10/18 11:04:46;;;;;;;4.17;1.50;;;16.20;99.90;;;;;;4955582;28;20567;-74
2021/10/18 11:07:15;;;;;;;2.60;1.60;;;16.50;99.90;;;;;;4955848;28;20710;-72
2021/10/18 11:09:46;;;;;;;5.40;1.67;;;16.40;99.90;;;;;;4956131;29;20234;-75
2021/10/18 11:12:25;;;;;;;3.20;1.47;;;16.40;99.90;;;;;;4955681;29;20210;-76
2021/10/18 11:14:54;;;;;;;2.53;1.70;;;16.50;99.90;;;;;;4955574;29;20671;-76
2021/10/18 11:17:21;;;;;;;2.53;1.47;;;16.60;99.90;;;;;;4955431;28;20228;-73
2021/10/18 11:19:55;;;;;;;4.30;1.90;;;16.60;99.90;;;;;;4955674;29;20212;-72
2021/10/18 11:22:28;;;;;;;4.47;1.97;;;16.80;99.90;;;;;;4955858;29;20204;-75
2021/10/18 11:24:56;;;;;;;2.70;1.70;;;16.80;99.90;;;;;;4955576;29;20671;-72
2021/10/18 11:27:25;;;;;;;2.27;1.60;;;16.90;99.90;;;;;;4955551;28;20253;-73
2021/10/18 11:29:57;;;;;;;3.23;1.87;;;17.00;99.90;;;;;;4955393;29;20686;-70
2021/10/18 11:32:24;;;;;;;3.60;1.60;;;17.20;99.90;;;;;;4955413;29;20216;-72
2021/10/18 11:34:51;;;;;;;2.70;1.60;;;17.30;99.90;;;;;;4955547;29;20694;-71
2021/10/18 11:37:18;;;;;;;3.27;1.80;;;17.30;99.90;;;;;;4955478;28;20238;-69
2021/10/18 11:39:45;;;;;;;2.00;1.37;;;17.40;99.90;;;;;;4955269;29;20742;-69
2021/10/18 11:42:14;;;;;;;3.83;1.50;;;17.60;99.90;;;;;;4955345;29;20208;-71
2021/10/18 11:44:48;;;;;;;2.30;1.57;;;17.70;99.90;;;;;;4955300;29;20218;-69
2021/10/18 11:47:39;;;;;;;4.93;1.97;;;17.90;99.90;;;;;;4955144;28;20234;-74
2021/10/18 11:50:18;;;;;;;2.73;1.73;;;17.90;99.90;;;;;;4955025;29;20218;-74
2021/10/18 11:52:49;;;;;;;2.03;1.37;;;17.60;99.90;;;;;;4955051;28;20255;-71
2021/10/18 11:55:19;;;;;;;2.27;1.60;;;17.60;99.90;;;;;;4955194;28;20208;-69
2021/10/18 11:57:49;;;;;;;2.40;1.50;;;17.60;99.90;;;;;;4955082;28;20318;-69
2021/10/18 12:00:23;;;;;;;2.77;1.53;;;17.40;99.90;;;;;;4955142;29;20307;-69
2021/10/18 12:02:50;;;;;;;3.63;1.63;;;17.50;99.90;;;;;;4954669;29;20222;-70
2021/10/18 12:05:17;;;;;;;1.53;1.20;;;17.60;99.90;;;;;;4955041;29;20211;-70
2021/10/18 12:07:47;;;;;;;3.93;1.60;;;17.60;99.90;;;;;;4955009;28;20228;-70
2021/10/18 12:10:22;;;;;;;2.60;1.40;;;17.60;99.90;;;;;;4955029;29;20212;-75
2021/10/18 12:13:17;;;;;;;2.77;1.70;;;17.40;99.90;;;;;;4954725;29;20587;-74
2021/10/18 12:15:53;;;;;;;2.63;1.43;;;17.30;99.90;;;;;;4953876;28;20207;-70
2021/10/18 12:18:21;;;;;;;2.93;1.50;;;17.40;99.90;;;;;;4954751;29;20204;-72
2021/10/18 12:20:50;;;;;;;4.10;1.80;;;17.60;99.90;;;;;;4954829;29;20242;-69
2021/10/18 12:23:21;;;;;;;5.70;1.47;;;17.50;99.90;;;;;;4954563;29;20212;-70
2021/10/18 12:25:57;;;;;;;3.60;1.70;;;17.60;99.90;;;;;;4954745;29;20208;-71
2021/10/18 12:28:28;;;;;;;2.50;1.30;;;17.60;99.90;;;;;;4954568;29;20659;-70
2021/10/18 12:30:56;;;;;;;1.97;1.40;;;17.80;99.90;;;;;;4954778;29;20216;-70
2021/10/18 12:33:32;;;;;;;2.73;1.50;;;17.70;99.90;;;;;;4954542;29;20239;-75
2021/10/18 12:35:59;;;;;;;2.20;1.67;;;17.60;99.90;;;;;;4954709;28;20208;-70
2021/10/18 12:38:28;;;;;;;2.83;1.70;;;17.40;99.90;;;;;;4954493;29;20219;-69
2021/10/18 12:41:07;;;;;;;2.77;1.47;;;17.40;99.90;;;;;;4954663;29;20207;-70
2021/10/18 12:43:36;;;;;;;2.67;1.47;;;17.30;99.90;;;;;;4954529;29;20674;-71
2021/10/18 12:46:20;;;;;;;3.17;1.60;;;17.40;99.90;;;;;;4954345;28;20230;-74
2021/10/18 12:48:58;;;;;;;2.73;1.67;;;17.30;99.90;;;;;;4954402;29;20231;-72
2021/10/18 12:51:41;;;;;;;3.23;1.50;;;17.30;99.90;;;;;;4954514;29;20211;-69
2021/10/18 12:54:23;;;;;;;2.80;1.67;;;17.40;99.90;;;;;;4954647;29;20276;-69
2021/10/18 12:57:12;;;;;;;1.93;1.40;;;17.50;99.90;;;;;;4955176;28;20224;-69
2021/10/18 13:00:03;;;;;;;3.63;1.70;;;17.60;99.90;;;;;;4950268;28;20262;-69
2021/10/18 13:02:32;;;;;;;3.80;1.93;;;17.50;99.90;;;;;;4954738;29;20208;-72
2021/10/18 13:05:16;;;;;;;2.90;1.73;;;17.50;99.90;;;;;;4954673;29;20212;-70
2021/10/18 13:07:46;;;;;;;2.77;1.70;;;17.50;99.90;;;;;;4954338;28;20725;-70
2021/10/18 13:10:15;;;;;;;2.27;1.60;;;17.50;99.90;;;;;;4954043;29;20682;-72
2021/10/18 13:12:43;;;;;;;3.03;1.70;;;17.70;99.90;;;;;;4954397;29;20671;-75
2021/10/18 13:15:13;;;;;;;3.13;1.63;;;17.90;99.90;;;;;;4954344;29;20242;-72
2021/10/18 13:17:40;;;;;;;2.27;1.67;;;18.00;99.90;;;;;;4954291;28;20235;-70
2021/10/18 13:20:09;;;;;;;2.70;1.70;;;17.90;99.90;;;;;;4954042;29;20208;-71
2021/10/18 13:22:36;;;;;;;4.23;1.53;;;17.90;99.90;;;;;;4954223;29;20546;-71
2021/10/18 13:25:03;;;;;;;3.67;1.70;;;17.80;99.90;;;;;;4954629;29;20212;-69
2021/10/18 13:27:31;;;;;;;2.37;1.60;;;17.80;99.90;;;;;;4956456;28;20228;-69
2021/10/18 13:29:58;;;;;;;2.63;1.43;;;17.90;99.90;;;;;;4957669;29;20212;-70
2021/10/18 13:32:26;;;;;;;2.17;1.50;;;17.80;99.90;;;;;;4957343;29;20571;-73
2021/10/18 13:34:53;;;;;;;2.33;1.27;;;17.60;99.90;;;;;;4957311;29;20235;-70
2021/10/18 13:37:20;;;;;;;3.43;1.70;;;17.50;99.90;;;;;;4957483;28;20754;-70
2021/10/18 13:39:47;;;;;;;3.17;1.50;;;17.50;99.90;;;;;;4957456;29;20215;-69
2021/10/18 13:42:13;;;;;;;5.20;1.90;;;17.50;99.90;;;;;;4938051;29;20303;-69
2021/10/18 13:44:40;;;;;;;2.67;1.50;;;17.50;99.90;;;;;;4936859;29;20209;-75
2021/10/18 13:47:07;;;;;;;2.97;1.70;;;17.50;99.90;;;;;;4950463;28;20702;-73
2021/10/18 13:49:36;;;;;;;2.93;1.70;;;17.60;99.90;;;;;;4956089;29;20208;-69
2021/10/18 13:52:04;;;;;;;5.27;1.50;;;17.60;99.90;;;;;;4955740;29;20567;-70
2021/10/18 13:54:31;;;;;;;2.33;1.30;;;17.70;99.90;;;;;;4955710;28;20235;-71
2021/10/18 13:56:58;;;;;;;3.53;1.77;;;17.80;99.90;;;;;;4955635;28;20318;-71
2021/10/18 13:59:25;;;;;;;2.37;1.53;;;17.80;99.90;;;;;;4955567;29;20208;-67
2021/10/18 14:01:52;;;;;;;3.33;1.57;;;17.90;99.90;;;;;;4955345;29;20664;-68
2021/10/18 14:04:21;;;;;;;2.43;1.50;;;18.10;99.90;;;;;;4955432;29;20683;-68
2021/10/18 14:06:49;;;;;;;7.17;1.50;;;18.20;99.90;;;;;;4955693;28;20228;-68
2021/10/18 14:09:16;;;;;;;4.43;1.47;;;18.30;99.90;;;;;;4955813;29;20204;-71
2021/10/18 14:11:43;;;;;;;4.03;1.67;;;18.30;99.90;;;;;;4956368;29;20208;-68
2021/10/18 14:14:12;;;;;;;3.33;1.67;;;18.40;99.90;;;;;;4955700;29;20242;-80
2021/10/18 14:16:39;;;;;;;4.10;1.50;;;18.40;99.90;;;;;;4955216;28;20714;-70
2021/10/18 14:19:07;;;;;;;2.83;1.70;;;18.30;99.90;;;;;;4955905;29;20235;-73
2021/10/18 14:21:35;;;;;;;2.47;1.60;;;18.30;99.90;;;;;;4955168;29;20243;-72
2021/10/18 14:24:06;;;;;;;3.43;1.70;;;18.10;99.90;;;;;;4955486;29;20659;-75
2021/10/18 14:26:33;;;;;;;2.37;1.70;;;18.20;99.90;;;;;;4955830;28;20223;-73
2021/10/18 14:29:00;;;;;;;2.00;1.50;;;18.30;99.90;;;;;;4955384;29;20307;-70
2021/10/18 14:31:27;;;;;;;3.33;1.33;;;18.40;99.90;;;;;;4955075;29;20266;-68
2021/10/18 14:33:54;;;;;;;2.63;1.40;;;18.50;99.90;;;;;;4954975;29;20235;-70
2021/10/18 14:36:22;;;;;;;2.97;1.67;;;18.60;99.90;;;;;;4955089;28;20235;-70
2021/10/18 14:38:53;;;;;;;2.77;1.43;;;18.40;99.90;;;;;;4955286;28;20218;-71
2021/10/18 14:41:23;;;;;;;2.93;1.27;;;18.40;99.90;;;;;;4957769;29;20215;-68
2021/10/18 14:43:53;;;;;;;5.38;1.70;;;18.40;99.90;;;;;;4957996;29;20212;-75
2021/10/18 14:46:20;;;;;;;2.95;1.55;;;18.50;99.90;;;;;;4956532;28;20230;-80
2021/10/18 14:48:47;;;;;;;4.37;1.80;;;18.50;99.90;;;;;;4957080;29;20208;-68
2021/10/18 14:51:14;;;;;;;2.53;1.50;;;18.50;99.90;;;;;;4956916;29;20208;-68
2021/10/18 14:53:41;;;;;;;2.80;1.23;;;18.50;99.90;;;;;;4956939;29;20224;-69
2021/10/18 14:56:07;;;;;;;4.43;1.80;;;18.50;99.90;;;;;;4956405;28;20224;-69
2021/10/18 14:58:35;;;;;;;4.20;1.70;;;18.50;99.90;;;;;;4957479;29;20208;-73
2021/10/18 15:01:03;;;;;;;3.03;1.70;;;18.40;99.90;;;;;;4957828;28;20307;-72
2021/10/18 15:03:31;;;;;;;3.70;1.60;;;18.30;99.90;;;;;;4957473;29;20216;-74
2021/10/18 15:05:58;;;;;;;3.07;1.80;;;18.30;99.90;;;;;;4960389;28;20207;-78
2021/10/18 15:08:25;;;;;;;3.53;1.60;;;18.20;99.90;;;;;;4963698;29;20231;-83
2021/10/18 15:10:52;;;;;;;4.30;1.67;;;18.30;99.90;;;;;;4963975;29;20272;-72
2021/10/18 15:13:19;;;;;;;2.87;1.90;;;18.40;99.90;;;;;;4960240;29;20208;-74
2021/10/18 15:15:47;;;;;;;3.70;2.00;;;18.40;99.90;;;;;;4957318;29;20246;-73
2021/10/18 15:18:14;;;;;;;3.00;1.40;;;18.30;99.90;;;;;;4957549;28;20314;-76
2021/10/18 15:20:41;;;;;;;3.67;1.60;;;18.10;99.90;;;;;;4956778;29;20212;-80
2021/10/18 15:23:08;;;;;;;5.00;2.07;;;18.00;99.90;;;;;;4957356;29;20204;-74
2021/10/18 15:25:35;;;;;;;4.13;2.57;;;17.90;99.90;;;;;;4955964;29;20226;-83
2021/10/18 15:28:02;;;;;;;4.17;2.00;;;17.90;99.90;;;;;;4956174;28;20318;-86
2021/10/18 15:30:29;;;;;;;2.63;1.47;;;17.90;99.90;;;;;;4956861;29;20210;-81
2021/10/18 15:32:57;;;;;;;3.63;1.70;;;17.80;99.90;;;;;;4957517;29;20222;-86
2021/10/18 15:35:24;;;;;;;2.43;1.50;;;17.80;99.90;;;;;;4956224;29;20235;-76
2021/10/18 15:37:51;;;;;;;2.43;1.63;;;17.60;99.90;;;;;;4956837;28;20318;-84
2021/10/18 15:40:18;;;;;;;3.20;1.70;;;17.60;99.90;;;;;;4958000;29;20579;-81
2021/10/18 15:42:46;;;;;;;3.10;1.67;;;17.30;99.90;;;;;;4958618;29;20203;-82
2021/10/18 15:45:13;;;;;;;2.77;1.50;;;17.30;99.90;;;;;;4958113;29;20208;-80
2021/10/18 15:47:42;;;;;;;3.90;1.73;;;17.20;99.90;;;;;;4957913;28;20228;-75
2021/10/18 15:50:12;;;;;;;2.57;1.50;;;17.10;99.90;;;;;;4958519;28;20255;-77
2021/10/18 15:52:38;;;;;;;4.73;1.70;;;17.10;99.90;;;;;;4958770;29;20239;-79
2021/10/18 15:55:06;;;;;;;3.73;1.80;;;17.00;99.90;;;;;;4957928;29;20242;-79
2021/10/18 15:57:33;;;;;;;4.03;1.60;;;16.90;99.90;;;;;;4958632;28;20224;-83
2021/10/18 16:00:00;;;;;;;3.33;1.60;;;17.00;99.90;;;;;;4958062;29;20220;-73
2021/10/18 16:02:27;;;;;;;3.67;1.60;;;16.90;99.90;;;;;;4956921;29;20216;-82
2021/10/18 16:04:54;;;;;;;2.90;1.50;;;16.90;99.90;;;;;;4957417;29;20222;-83
2021/10/18 16:07:22;;;;;;;2.93;1.47;;;16.80;99.90;;;;;;4956089;28;20319;-81
2021/10/18 16:09:49;;;;;;;3.07;1.67;;;16.70;99.90;;;;;;4955753;28;20299;-76
2021/10/18 16:12:17;;;;;;;3.27;1.80;;;16.70;99.90;;;;;;4955424;29;20686;-81
2021/10/18 16:14:44;;;;;;;2.77;1.70;;;16.70;99.90;;;;;;4955256;29;20703;-78
2021/10/18 16:17:12;;;;;;;3.13;1.80;;;16.60;99.90;;;;;;4955057;28;20228;-82
2021/10/18 16:19:39;;;;;;;3.73;1.50;;;16.50;99.90;;;;;;4955149;28;20663;-80
2021/10/18 16:22:06;;;;;;;3.53;1.90;;;16.50;99.90;;;;;;4955359;29;20212;-82
2021/10/18 16:24:35;;;;;;;2.47;1.60;;;16.50;99.90;;;;;;4955365;28;20208;-85
2021/10/18 16:27:03;;;;;;;4.90;1.60;;;16.50;99.90;;;;;;4955385;28;20246;-83
2021/10/18 16:29:30;;;;;;;3.27;1.80;;;16.50;99.90;;;;;;4956111;29;20683;-83
2021/10/18 16:31:57;;;;;;;3.67;1.70;;;16.50;99.90;;;;;;4954962;29;20315;-81
2021/10/18 16:34:24;;;;;;;3.73;1.70;;;16.60;99.90;;;;;;4954814;29;20240;-81
2021/10/18 16:36:51;;;;;;;4.50;1.40;;;16.60;99.90;;;;;;4955196;28;20263;-78
2021/10/18 16:39:18;;;;;;;3.37;1.77;;;16.50;99.90;;;;;;4954615;29;20211;-68
2021/10/18 16:41:46;;;;;;;5.20;1.93;;;16.60;99.90;;;;;;4955109;28;20208;-81
2021/10/18 16:44:13;;;;;;;4.93;2.30;;;16.50;99.90;;;;;;4955133;29;20548;-79
2021/10/18 16:46:40;;;;;;;4.60;1.80;;;16.30;99.90;;;;;;4954750;28;20595;-81
2021/10/18 16:49:07;;;;;;;2.90;1.53;;;16.30;99.90;;;;;;4955924;29;20251;-73
2021/10/18 16:51:34;;;;;;;4.30;2.40;;;16.20;99.90;;;;;;4955491;29;20204;-82
2021/10/18 16:54:02;;;;;;;4.90;2.10;;;16.20;99.90;;;;;;4955286;29;20218;-82
2021/10/18 16:56:29;;;;;;;3.70;2.30;;;16.30;99.90;;;;;;4955139;28;20238;-79
2021/10/18 16:58:57;;;;;;;2.67;1.77;;;16.20;99.90;;;;;;4955014;29;20208;-80
2021/10/18 17:01:24;;;;;;;3.63;1.87;;;16.10;99.90;;;;;;4955208;28;20590;-68
2021/10/18 17:03:51;;;;;;;4.00;2.47;;;16.00;99.90;;;;;;4958372;29;20214;-68
2021/10/18 17:06:18;;;;;;;2.73;1.60;;;16.00;99.90;;;;;;4958226;28;20242;-78
2021/10/18 17:08:45;;;;;;;2.90;1.90;;;16.00;99.90;;;;;;4958344;29;20746;-79
2021/10/18 17:11:11;;;;;;;3.20;1.90;;;15.90;99.90;;;;;;4958192;29;20303;-84
2021/10/18 17:13:39;;;;;;;3.90;2.53;;;15.80;99.90;;;;;;4958156;29;20208;-77
2021/10/18 17:16:07;;;;;;;4.20;2.27;;;15.80;99.90;;;;;;4958272;28;20244;-82
2021/10/18 17:18:34;;;;;;;3.90;2.30;;;15.70;99.90;;;;;;4958493;28;20306;-68
2021/10/18 17:21:02;;;;;;;3.87;2.30;;;15.70;99.90;;;;;;4960602;29;20219;-77
2021/10/18 17:23:29;;;;;;;4.57;2.57;;;15.70;99.90;;;;;;4958609;28;20267;-80
2021/10/18 17:25:56;;;;;;;5.10;2.97;;;15.60;99.90;;;;;;4958480;28;20294;-80
2021/10/18 17:28:23;;;;;;;5.57;2.20;;;15.60;99.90;;;;;;4957891;29;20636;-80
2021/10/18 17:30:50;;;;;;;4.33;2.77;;;15.60;99.90;;;;;;4957994;29;20562;-77
2021/10/18 17:33:18;;;;;;;4.50;2.20;;;15.50;99.90;;;;;;4957961;29;20204;-80
2021/10/18 17:35:45;;;;;;;3.53;2.20;;;15.50;99.90;;;;;;4957801;28;20239;-80
2021/10/18 17:38:13;;;;;;;4.47;2.20;;;15.50;99.90;;;;;;4958264;28;20227;-77
2021/10/18 17:40:39;;;;;;;4.40;2.07;;;15.50;99.90;;;;;;4957732;29;20667;-82
2021/10/18 17:43:06;;;;;;;4.13;2.30;;;15.40;99.90;;;;;;4957835;29;20211;-83
2021/10/18 17:45:33;;;;;;;3.20;1.90;;;15.30;99.90;;;;;;4958585;29;20206;-68
2021/10/18 17:48:00;;;;;;;4.93;2.47;;;15.30;99.90;;;;;;4958066;28;20595;-79
2021/10/18 17:50:29;;;;;;;3.33;2.30;;;15.30;99.90;;;;;;4958341;28;20204;-85
2021/10/18 17:52:57;;;;;;;4.60;2.30;;;15.30;99.90;;;;;;4957980;29;20204;-74
2021/10/18 17:55:24;;;;;;;4.97;2.63;;;15.30;99.90;;;;;;4957577;29;20236;-81
2021/10/18 17:57:51;;;;;;;5.70;2.60;;;15.30;99.90;;;;;;4957209;28;20228;-76
2021/10/18 18:00:18;;;;;;;4.77;2.37;;;15.30;99.90;;;;;;4957687;29;20226;-77
2021/10/18 18:02:50;;;;;;;5.27;2.70;;;15.40;99.90;;;;;;4957746;29;20204;-76
2021/10/18 18:05:17;;;;;;;3.70;2.20;;;15.30;99.90;;;;;;4959564;29;20211;-68
2021/10/18 18:07:45;;;;;;;4.10;2.20;;;15.30;99.90;;;;;;4961323;28;20259;-69
2021/10/18 18:10:13;;;;;;;4.90;1.83;;;15.30;99.90;;;;;;4952063;28;20560;-73
2021/10/18 18:12:40;;;;;;;3.87;2.10;;;15.30;99.90;;;;;;4949852;28;20678;-77
2021/10/18 18:15:08;;;;;;;3.70;2.20;;;15.30;99.90;;;;;;4956465;28;20227;-69
2021/10/18 18:17:35;;;;;;;3.90;2.13;;;15.20;99.90;;;;;;4956816;29;20594;-72
2021/10/18 18:20:03;;;;;;;6.03;2.40;;;15.20;99.90;;;;;;4957894;29;20204;-72
2021/10/18 18:22:30;;;;;;;4.37;2.30;;;15.20;99.90;;;;;;4957668;29;20211;-72
2021/10/18 18:24:58;;;;;;;3.43;2.33;;;15.20;99.90;;;;;;4957323;29;20555;-71
2021/10/18 18:27:25;;;;;;;3.50;2.20;;;15.10;99.90;;;;;;4957034;28;20228;-71
2021/10/18 18:29:52;;;;;;;3.33;2.23;;;15.20;99.90;;;;;;4944096;29;20208;-70
2021/10/18 18:32:19;;;;;;;3.67;2.00;;;15.20;99.90;;;;;;4956698;29;20232;-71
2021/10/18 18:34:48;;;;;;;4.63;2.40;;;15.20;99.90;;;;;;4956115;29;20208;-68
2021/10/18 18:37:15;;;;;;;5.03;2.70;;;15.20;99.90;;;;;;4957544;29;20240;-68
2021/10/18 18:39:41;;;;;;;4.63;2.17;;;15.20;99.90;;;;;;4958003;29;20196;-78
2021/10/18 18:42:10;;;;;;;3.87;2.30;;;15.20;99.90;;;;;;4957726;29;20208;-70
2021/10/18 18:44:36;;;;;;;4.30;2.40;;;15.10;99.90;;;;;;4957206;29;20218;-73
2021/10/18 18:47:03;;;;;;;4.23;2.30;;;15.20;99.90;;;;;;4956551;29;20227;-71
2021/10/18 18:49:30;;;;;;;4.03;2.40;;;15.20;99.90;;;;;;4959595;29;20204;-68
2021/10/18 18:51:57;;;;;;;3.93;2.30;;;15.10;99.90;;;;;;4957382;29;20208;-71
2021/10/18 18:54:24;;;;;;;3.73;2.47;;;15.10;99.90;;;;;;4955731;29;20208;-71
2021/10/18 18:56:51;;;;;;;3.53;2.37;;;15.10;99.90;;;;;;4972334;23;20291;-73
2021/10/18 18:59:19;;;;;;;3.53;2.50;;;15.20;99.90;;;;;;4955592;29;20235;-73
2021/10/18 19:01:46;;;;;;;5.43;2.27;;;15.20;99.90;;;;;;4955821;28;20689;-75
